Terminal Aerodrome Forecast
Issued by NWS Atlanta, GA

Home | Current Version | Previous Version | Text Only | Print | Product List | Glossary On
Versions: 1 2 3 4 5 6 7 8 9 10 11 12 13 14 15 16 17 18 19 20 21 22 23 24 25 26 27 28 29 30
000
FTUS42 KFFC 212339
TAFMCN
TAF
KMCN 212339Z 2200/2224 22005KT P6SM SCT015 SCT150
     FM220200 19006KT 6SM BR BKN025
     FM220500 18008G15KT 5SM BR VCSH BKN007 OVC012
     FM220700 19010G18KT 3SM TSRA BR OVC005CB
     FM221400 22010G18KT 2SM BR VCSH OVC010 PROB30 2219/2223 3SM
      TSRA BKN020CB=

USA.gov is the U.S. government's official web portal to all federal, state and local government web resources and services.